createdAt,value
2018-07-12T00:01:33.013Z,101171.46
2018-07-12T00:06:26.078Z,101169.03
2018-07-12T00:11:18.990Z,101180.49
2018-07-12T00:16:11.966Z,101192.27
2018-07-12T00:21:04.828Z,101194.95
2018-07-12T00:25:57.979Z,101189.62
2018-07-12T00:30:50.854Z,101198.62
2018-07-12T00:35:43.811Z,101187.54
2018-07-12T00:40:36.740Z,101194.22
2018-07-12T00:45:29.654Z,101189.73
2018-07-12T00:50:22.895Z,101188.74
2018-07-12T00:55:15.798Z,101192.63
2018-07-12T01:00:08.760Z,101194.71
2018-07-12T01:05:01.635Z,101199.47
2018-07-12T01:09:54.815Z,101193.13
2018-07-12T01:14:47.760Z,101200.44
2018-07-12T01:19:40.670Z,101197.28
2018-07-12T01:24:33.721Z,101196.77
2018-07-12T01:29:26.685Z,101184.72
2018-07-12T01:34:19.644Z,101182.04
2018-07-12T01:39:12.814Z,101179.97
2018-07-12T01:44:06.120Z,101184.37
2018-07-12T01:48:59.091Z,101189.73
2018-07-12T01:53:51.975Z,101184.72
2018-07-12T01:58:45.177Z,101181.69
2018-07-12T02:03:38.086Z,101186.18
2018-07-12T02:08:31.029Z,101178.75
2018-07-12T02:13:23.897Z,101170.72
2018-07-12T02:18:16.890Z,101183.40
2018-07-12T02:23:09.764Z,101187.79
2018-07-12T02:28:02.644Z,101178.53
2018-07-12T02:32:55.585Z,101172.34
2018-07-12T02:37:48.450Z,101171.71
2018-07-12T02:42:41.406Z,101170.45
2018-07-12T02:47:34.289Z,101177.57
2018-07-12T02:52:27.361Z,101172.66
2018-07-12T02:57:20.237Z,101178.33
2018-07-12T03:02:13.104Z,101178.40
2018-07-12T03:07:05.991Z,101188.67
2018-07-12T03:11:58.864Z,101187.67
2018-07-12T03:16:51.753Z,101186.99
2018-07-12T03:21:44.618Z,101189.64
2018-07-12T03:26:37.659Z,101191.17
2018-07-12T03:31:30.509Z,101200.97
2018-07-12T03:36:23.893Z,101196.52
2018-07-12T03:41:16.982Z,101199.75
2018-07-12T03:46:09.848Z,101192.51
2018-07-12T03:51:02.952Z,101196.33
2018-07-12T03:55:55.812Z,101198.26
2018-07-12T04:00:48.713Z,101206.55
2018-07-12T04:05:41.616Z,101206.83
2018-07-12T04:10:34.515Z,101200.66
2018-07-12T04:15:27.655Z,101200.77
2018-07-12T04:20:20.514Z,101197.39
2018-07-12T04:25:13.623Z,101204.20
2018-07-12T04:30:06.511Z,101207.62
2018-07-12T04:34:59.382Z,101209.58
2018-07-12T04:39:52.474Z,101220.46
2018-07-12T04:44:45.346Z,101224.97
2018-07-12T04:49:38.226Z,101227.43
2018-07-12T04:54:31.104Z,101225.38
2018-07-12T04:59:24.042Z,101232.19
2018-07-12T05:04:17.186Z,101232.59
2018-07-12T05:09:11.148Z,101227.64
2018-07-12T05:14:04.137Z,101221.48
2018-07-12T05:18:57.399Z,101225.29
2018-07-12T05:23:50.327Z,101232.61
2018-07-12T05:28:43.206Z,101231.87
2018-07-12T05:33:36.085Z,101235.08
2018-07-12T05:38:30.941Z,101231.05
2018-07-12T05:43:25.557Z,101235.48
2018-07-12T05:48:20.454Z,101242.55
2018-07-12T05:53:15.510Z,101243.55
2018-07-12T05:58:10.461Z,101253.44
2018-07-12T06:03:05.003Z,101248.31
2018-07-12T06:07:59.535Z,101252.78
2018-07-12T06:12:53.878Z,101259.23
2018-07-12T06:17:48.579Z,101267.43
2018-07-12T06:22:43.542Z,101264.84
2018-07-12T06:27:38.009Z,101269.80
2018-07-12T06:32:32.525Z,101277.24
2018-07-12T06:37:27.441Z,101279.25
2018-07-12T06:42:22.417Z,101290.45
2018-07-12T06:47:17.167Z,101292.01
2018-07-12T06:52:11.646Z,101294.52
2018-07-12T06:57:06.456Z,101299.11
2018-07-12T07:02:01.112Z,101302.16
2018-07-12T07:06:55.385Z,101302.20
2018-07-12T07:11:50.143Z,101295.45
2018-07-12T07:16:45.098Z,101298.47
2018-07-12T07:21:39.918Z,101306.75
2018-07-12T07:26:34.777Z,101310.15
2018-07-12T07:31:29.834Z,101309.77
2018-07-12T07:36:24.805Z,101309.47
2018-07-12T07:41:19.625Z,101316.81
2018-07-12T07:46:14.421Z,101323.54
2018-07-12T07:51:09.622Z,101322.53
2018-07-12T07:56:04.530Z,101332.41
2018-07-12T08:00:59.368Z,101336.91
2018-07-12T08:05:54.454Z,101334.91
2018-07-12T08:10:49.288Z,101331.92
2018-07-12T08:15:44.172Z,101331.92
2018-07-12T08:20:38.977Z,101327.76
2018-07-12T08:25:33.843Z,101326.48
2018-07-12T08:30:28.713Z,101322.69
2018-07-12T08:35:23.554Z,101326.90
2018-07-12T08:40:18.426Z,101332.39
2018-07-12T08:45:13.060Z,101337.69
2018-07-12T08:50:08.019Z,101330.61
2018-07-12T08:55:03.297Z,101336.84
2018-07-12T08:59:58.277Z,101339.21
2018-07-12T09:04:53.188Z,101338.20
2018-07-12T09:09:48.339Z,101335.59
2018-07-12T09:14:43.442Z,101333.69
2018-07-12T09:19:38.193Z,101340.74
2018-07-12T09:24:33.766Z,101335.41
2018-07-12T09:29:28.775Z,101331.62
2018-07-12T09:34:23.833Z,101343.81
2018-07-12T09:39:18.934Z,101338.52
2018-07-12T09:44:13.950Z,101343.62
2018-07-12T09:49:09.147Z,101340.81
2018-07-12T09:54:04.116Z,101337.30
2018-07-12T09:58:59.133Z,101343.08
2018-07-12T10:03:55.106Z,101345.07
2018-07-12T10:08:55.070Z,101342.45
2018-07-12T10:13:55.086Z,101338.70
2018-07-12T10:18:51.063Z,101337.73
2018-07-12T10:23:45.976Z,101341.17
2018-07-12T10:28:40.816Z,101337.84
2018-07-12T10:33:35.694Z,101338.98
2018-07-12T10:38:30.790Z,101338.98
2018-07-12T10:43:26.028Z,101339.95
2018-07-12T10:48:20.892Z,101338.00
2018-07-12T10:53:15.792Z,101341.88
2018-07-12T10:58:10.301Z,101339.50
2018-07-12T11:03:04.793Z,101338.39
2018-07-12T11:07:59.727Z,101338.39
2018-07-12T11:13:11.919Z,101332.59
2018-07-12T11:18:06.556Z,101329.50
2018-07-12T11:23:01.384Z,101326.23
2018-07-12T11:27:56.259Z,101330.97
2018-07-12T11:32:51.196Z,101318.37
2018-07-12T11:37:46.360Z,101319.91
2018-07-12T11:42:41.298Z,101317.73
2018-07-12T11:47:36.293Z,101323.48
2018-07-12T11:52:31.442Z,101313.22
2018-07-12T11:57:26.545Z,101317.76
2018-07-12T12:02:21.744Z,101317.17
2018-07-12T12:07:16.509Z,101325.72
2018-07-12T12:12:11.256Z,101315.61
2018-07-12T12:17:06.049Z,101307.70
2018-07-12T12:22:01.631Z,101300.30
2018-07-12T12:26:56.439Z,101293.05
2018-07-12T12:31:51.793Z,101297.29
2018-07-12T12:36:46.627Z,101300.63
2018-07-12T12:41:41.430Z,101297.14
2018-07-12T12:46:36.344Z,101293.05
2018-07-12T12:51:32.285Z,101292.75
2018-07-12T12:56:27.476Z,101286.58
2018-07-12T13:01:22.729Z,101283.20
2018-07-12T13:06:18.441Z,101280.25
2018-07-12T13:11:24.258Z,101283.61
2018-07-12T13:16:19.408Z,101279.66
2018-07-12T13:21:15.212Z,101276.68
2018-07-12T13:26:10.592Z,101275.13
2018-07-12T13:31:05.584Z,101272.30
2018-07-12T13:36:00.885Z,101268.94
2018-07-12T13:40:56.040Z,101268.08
2018-07-12T13:45:51.846Z,101263.92
2018-07-12T13:50:47.203Z,101256.41
2018-07-12T13:55:42.547Z,101256.61
2018-07-12T14:00:37.605Z,101256.11
2018-07-12T14:05:33.503Z,101254.19
2018-07-12T14:10:28.678Z,101250.48
2018-07-12T14:15:24.285Z,101247.43
2018-07-12T14:20:19.843Z,101244.94
2018-07-12T14:25:15.358Z,101236.91
2018-07-12T14:30:10.188Z,101225.83
2018-07-12T14:35:05.021Z,101228.11
2018-07-12T14:40:01.310Z,101223.65
2018-07-12T14:44:57.461Z,101227.50
2018-07-12T14:49:52.765Z,101226.98
2018-07-12T14:54:47.733Z,101212.75
2018-07-12T14:59:42.656Z,101216.13
2018-07-12T15:04:37.522Z,101217.46
2018-07-12T15:09:32.359Z,101214.70
2018-07-12T15:14:27.076Z,101219.80
2018-07-12T15:19:22.030Z,101217.16
2018-07-12T15:24:18.932Z,101208.50
2018-07-12T15:29:14.546Z,101200.37
2018-07-12T15:34:09.464Z,101203.09
2018-07-12T15:39:05.465Z,101195.69
2018-07-12T15:44:00.390Z,101190.56
2018-07-12T15:48:55.597Z,101197.48
2018-07-12T15:53:50.355Z,101190.48
2018-07-12T15:58:44.932Z,101187.23
2018-07-12T16:03:39.812Z,101177.56
2018-07-12T16:08:35.166Z,101183.48
2018-07-12T16:13:29.447Z,101180.62
2018-07-12T16:18:24.483Z,101174.33
2018-07-12T16:23:19.220Z,101178.41
2018-07-12T16:28:14.469Z,101174.34
2018-07-12T16:33:09.325Z,101180.14
2018-07-12T16:38:04.205Z,101157.99
2018-07-12T16:42:59.241Z,101175.62
2018-07-12T16:47:53.738Z,101173.35
2018-07-12T16:52:49.163Z,101174.09
2018-07-12T16:57:44.005Z,101175.78
2018-07-12T17:02:38.806Z,101173.14
2018-07-12T17:07:33.641Z,101176.48
2018-07-12T17:12:28.555Z,101181.73
2018-07-12T17:17:23.190Z,101178.70
2018-07-12T17:22:18.780Z,101183.48
2018-07-12T17:27:13.694Z,101180.64
2018-07-12T17:32:08.609Z,101182.31
2018-07-12T17:37:03.402Z,101179.75
2018-07-12T17:41:58.167Z,101177.91
2018-07-12T17:46:52.913Z,101180.22
2018-07-12T17:51:47.449Z,101187.02
2018-07-12T17:56:41.882Z,101188.25
2018-07-12T18:01:36.441Z,101194.28
2018-07-12T18:06:31.140Z,101193.58
2018-07-12T18:11:25.655Z,101192.36
2018-07-12T18:16:20.212Z,101194.04
2018-07-12T18:21:14.683Z,101198.41
2018-07-12T18:26:09.477Z,101197.91
2018-07-12T18:31:04.382Z,101190.38
2018-07-12T18:35:58.949Z,101200.48
2018-07-12T18:40:53.457Z,101207.98
2018-07-12T18:45:47.828Z,101207.38
2018-07-12T18:50:42.326Z,101217.11
2018-07-12T18:55:36.931Z,101212.62
2018-07-12T19:00:32.234Z,101234.42
2018-07-12T19:05:27.234Z,101235.16
2018-07-12T19:10:21.972Z,101243.02
2018-07-12T19:15:16.563Z,101249.62
2018-07-12T19:20:11.202Z,101258.85
2018-07-12T19:25:05.814Z,101268.05
2018-07-12T19:30:00.412Z,101265.02
2018-07-12T19:34:54.972Z,101271.13
2018-07-12T19:39:49.653Z,101269.44
2018-07-12T19:44:45.066Z,101276.66
2018-07-12T19:49:40.109Z,101283.94
2018-07-12T19:54:34.683Z,101284.09
2018-07-12T19:59:33.200Z,101293.91
2018-07-12T20:04:28.303Z,101307.81
2018-07-12T20:09:23.320Z,101315.59
2018-07-12T20:14:17.914Z,101322.42
2018-07-12T20:19:13.304Z,101333.59
2018-07-12T20:24:10.021Z,101335.84
2018-07-12T20:29:04.908Z,101336.45
2018-07-12T20:33:59.574Z,101339.73
2018-07-12T20:38:53.802Z,101349.73
2018-07-12T20:43:48.038Z,101352.24
2018-07-12T20:48:43.468Z,101352.20
2018-07-12T20:53:38.059Z,101354.67
2018-07-12T20:58:34.062Z,101357.74
2018-07-12T21:03:28.910Z,101354.63
2018-07-12T21:08:23.370Z,101359.00
2018-07-12T21:13:17.912Z,101366.77
2018-07-12T21:18:12.413Z,101362.59
2018-07-12T21:23:07.282Z,101358.92
2018-07-12T21:28:02.002Z,101363.89
2018-07-12T21:32:56.762Z,101375.53
2018-07-12T21:37:51.612Z,101373.12
2018-07-12T21:42:46.104Z,101374.70
2018-07-12T21:47:40.597Z,101379.15
2018-07-12T21:52:35.112Z,101380.41
2018-07-12T21:57:30.550Z,101377.45
2018-07-12T22:02:25.080Z,101378.22
2018-07-12T22:08:31.154Z,101383.08
2018-07-12T22:13:26.414Z,101382.69
2018-07-12T22:18:21.146Z,101391.19
2018-07-12T22:23:15.814Z,101392.99
2018-07-12T22:28:10.306Z,101392.59
2018-07-12T22:33:05.378Z,101398.38
2018-07-12T22:38:01.274Z,101393.42
2018-07-12T22:42:56.608Z,101397.91
2018-07-12T22:47:51.842Z,101400.00
2018-07-12T22:52:46.339Z,101402.22
2018-07-12T22:57:41.652Z,101401.05
2018-07-12T23:02:36.158Z,101400.49
2018-07-12T23:07:30.932Z,101396.25
2018-07-12T23:12:25.596Z,101398.71
2018-07-12T23:17:20.178Z,101396.67
2018-07-12T23:22:14.942Z,101401.69
2018-07-12T23:27:09.558Z,101395.61
2018-07-12T23:32:04.175Z,101408.20
2018-07-12T23:36:58.904Z,101406.97
2018-07-12T23:41:53.435Z,101415.02
2018-07-12T23:46:48.153Z,101418.20
2018-07-12T23:51:43.057Z,101411.38
2018-07-12T23:56:37.524Z,101415.03
